createdAt,value
2023-02-04T00:02:35.525Z,7.90
2023-02-04T00:05:37.485Z,8.05
2023-02-04T00:08:39.482Z,8.32
2023-02-04T00:11:41.426Z,6.27
2023-02-04T00:14:43.338Z,5.45
2023-02-04T00:17:45.227Z,8.10
2023-02-04T00:20:47.130Z,5.22
2023-02-04T00:23:51.169Z,6.50
2023-02-04T00:26:53.015Z,4.47
2023-02-04T00:29:54.981Z,4.20
2023-02-04T00:32:57.037Z,4.88
2023-02-04T00:35:59.105Z,3.58
2023-02-04T00:39:01.011Z,4.22
2023-02-04T00:42:03.450Z,5.37
2023-02-04T00:45:05.577Z,2.53
2023-02-04T00:48:07.498Z,4.28
2023-02-04T00:51:09.409Z,4.45
2023-02-04T00:54:13.798Z,3.42
2023-02-04T00:57:15.747Z,3.77
2023-02-04T01:00:18.309Z,3.70
2023-02-04T01:03:20.373Z,3.90
2023-02-04T01:06:22.499Z,2.95
2023-02-04T01:09:24.723Z,3.65
2023-02-04T01:12:27.488Z,2.30
2023-02-04T01:15:29.787Z,2.85
2023-02-04T01:18:31.658Z,4.13
2023-02-04T01:21:33.529Z,3.33
2023-02-04T01:24:35.374Z,2.75
2023-02-04T01:27:55.905Z,2.37
2023-02-04T01:30:58.092Z,3.88
2023-02-04T01:34:01.386Z,3.67
2023-02-04T01:37:03.245Z,3.10
2023-02-04T01:40:06.067Z,2.72
2023-02-04T01:43:11.053Z,4.17
2023-02-04T01:46:13.341Z,4.95
2023-02-04T01:49:15.578Z,4.43
2023-02-04T01:52:18.022Z,4.28
2023-02-04T01:55:24.037Z,4.70
2023-02-04T01:58:26.156Z,5.90
2023-02-04T02:01:44.748Z,6.40
2023-02-04T02:04:46.679Z,4.90
2023-02-04T02:07:50.063Z,4.30
2023-02-04T02:10:52.978Z,5.20
2023-02-04T02:13:55.289Z,5.07
2023-02-04T02:16:57.484Z,5.63
2023-02-04T02:19:59.682Z,7.25
2023-02-04T02:23:11.529Z,6.50
2023-02-04T02:26:15.110Z,10.55
2023-02-04T02:29:17.078Z,13.30
2023-02-04T02:32:19.449Z,14.50
2023-02-04T02:35:21.636Z,13.68
2023-02-04T02:38:24.738Z,13.07
2023-02-04T02:41:26.719Z,13.23
2023-02-04T02:44:29.792Z,11.43
2023-02-04T02:47:32.818Z,11.13
2023-02-04T02:50:34.814Z,9.60
2023-02-04T02:53:36.835Z,7.72
2023-02-04T02:56:38.994Z,7.50
2023-02-04T02:59:42.538Z,6.37
2023-02-04T03:02:45.992Z,6.18
2023-02-04T03:05:52.350Z,6.25
2023-02-04T03:08:56.938Z,6.60
2023-02-04T03:11:58.949Z,7.00
2023-02-04T03:15:00.837Z,10.50
2023-02-04T03:18:03.334Z,9.07
2023-02-04T03:21:06.805Z,10.23
2023-02-04T03:24:09.471Z,7.82
2023-02-04T03:27:15.033Z,8.38
2023-02-04T03:30:17.260Z,8.63
2023-02-04T03:33:19.213Z,9.10
2023-02-04T03:36:21.059Z,9.50
2023-02-04T03:39:23.076Z,12.15
2023-02-04T03:42:25.726Z,12.48
2023-02-04T03:45:32.398Z,12.97
2023-02-04T03:48:36.819Z,15.32
2023-02-04T03:51:38.677Z,14.75
2023-02-04T03:54:40.566Z,16.17
2023-02-04T03:57:42.442Z,16.63
2023-02-04T04:00:44.450Z,13.73
2023-02-04T04:03:46.410Z,15.00
2023-02-04T04:06:48.298Z,13.85
2023-02-04T04:09:50.220Z,13.45
2023-02-04T04:12:52.095Z,14.18
2023-02-04T04:15:53.970Z,13.30
2023-02-04T04:18:56.227Z,14.25
2023-02-04T04:21:58.086Z,14.32
2023-02-04T04:24:59.962Z,15.15
2023-02-04T04:28:01.922Z,14.85
2023-02-04T04:31:04.359Z,17.30
2023-02-04T04:34:06.359Z,13.60
2023-02-04T04:37:08.609Z,15.73
2023-02-04T04:40:12.730Z,11.73
2023-02-04T04:43:14.729Z,18.40
2023-02-04T04:46:16.667Z,18.70
2023-02-04T04:49:18.967Z,14.90
2023-02-04T04:52:20.806Z,11.70
2023-02-04T04:55:22.667Z,11.43
2023-02-04T04:58:24.582Z,12.00
2023-02-04T05:01:26.474Z,12.47
2023-02-04T05:04:28.376Z,14.23
2023-02-04T05:07:30.251Z,12.23
2023-02-04T05:10:32.504Z,11.48
2023-02-04T05:13:34.744Z,10.73
2023-02-04T05:16:36.714Z,11.30
2023-02-04T05:19:38.697Z,9.77
2023-02-04T05:22:40.498Z,11.52
2023-02-04T05:25:42.435Z,12.40
2023-02-04T05:28:44.361Z,13.15
2023-02-04T05:31:46.456Z,12.03
2023-02-04T05:34:48.337Z,11.55
2023-02-04T05:37:50.361Z,11.40
2023-02-04T05:40:52.297Z,10.55
2023-02-04T05:43:54.146Z,11.05
2023-02-04T05:46:56.142Z,11.57
2023-02-04T05:49:58.020Z,11.18
2023-02-04T05:52:59.964Z,15.32
2023-02-04T05:56:02.337Z,14.00
2023-02-04T05:59:36.375Z,12.80
2023-02-04T06:02:38.296Z,13.00
2023-02-04T06:05:40.624Z,12.27
2023-02-04T06:08:42.549Z,11.23
2023-02-04T06:11:44.347Z,10.10
2023-02-04T06:14:46.230Z,10.07
2023-02-04T06:17:48.146Z,8.90
2023-02-04T06:20:49.993Z,8.45
2023-02-04T06:23:51.890Z,10.50
2023-02-04T06:26:53.717Z,9.82
2023-02-04T06:29:55.595Z,9.15
2023-02-04T06:32:57.603Z,9.38
2023-02-04T06:35:59.456Z,9.80
2023-02-04T06:39:01.369Z,8.43
2023-02-04T06:42:03.228Z,9.38
2023-02-04T06:45:05.715Z,9.15
2023-02-04T06:48:07.636Z,11.50
2023-02-04T06:51:09.631Z,9.23
2023-02-04T06:54:11.492Z,10.17
2023-02-04T06:57:13.359Z,11.13
2023-02-04T07:00:15.630Z,10.02
2023-02-04T07:03:17.509Z,9.55
2023-02-04T07:06:19.494Z,4.13
2023-02-04T07:09:21.627Z,5.70
2023-02-04T07:12:23.709Z,6.47
2023-02-04T07:15:25.828Z,7.82
2023-02-04T07:18:27.725Z,3.13
2023-02-04T07:21:29.894Z,4.70
2023-02-04T07:24:31.780Z,6.30
2023-02-04T07:27:33.717Z,8.55
2023-02-04T07:30:40.722Z,9.27
2023-02-04T07:33:42.685Z,8.52
2023-02-04T07:36:44.857Z,7.47
2023-02-04T07:39:46.839Z,6.27
2023-02-04T07:42:48.719Z,5.18
2023-02-04T07:45:53.405Z,3.97
2023-02-04T07:48:55.690Z,3.75
2023-02-04T07:51:58.147Z,4.32
2023-02-04T07:55:00.004Z,5.00
2023-02-04T07:58:02.094Z,6.22
2023-02-04T08:01:04.240Z,5.28
2023-02-04T08:04:06.099Z,3.88
2023-02-04T08:07:08.183Z,4.70
2023-02-04T08:10:11.162Z,3.37
2023-02-04T08:13:13.200Z,3.65
2023-02-04T08:16:15.006Z,3.47
2023-02-04T08:19:19.200Z,2.78
2023-02-04T08:22:21.041Z,3.97
2023-02-04T08:25:23.171Z,4.80
2023-02-04T08:28:25.370Z,4.40
2023-02-04T08:31:27.359Z,3.45
2023-02-04T08:34:29.548Z,6.45
2023-02-04T08:37:31.404Z,7.70
2023-02-04T08:40:34.841Z,10.97
2023-02-04T08:43:37.191Z,8.95
2023-02-04T08:47:18.890Z,8.38
2023-02-04T08:51:20.674Z,8.27
2023-02-04T08:55:22.302Z,8.32
2023-02-04T08:58:45.151Z,6.83
2023-02-04T09:01:50.990Z,4.90
2023-02-04T09:04:53.792Z,6.97
2023-02-04T09:07:55.667Z,4.20
2023-02-04T09:10:57.626Z,3.78
2023-02-04T09:13:59.585Z,2.40
2023-02-04T09:17:01.592Z,2.83
2023-02-04T09:20:04.442Z,1.95
2023-02-04T09:23:10.614Z,1.58
2023-02-04T09:26:13.394Z,1.60
2023-02-04T09:29:15.783Z,2.13
2023-02-04T09:32:19.363Z,2.08
2023-02-04T09:35:21.281Z,2.65
2023-02-04T09:38:24.279Z,1.50
2023-02-04T09:41:26.710Z,2.08
2023-02-04T09:44:29.311Z,2.53
2023-02-04T09:47:31.413Z,2.50
2023-02-04T09:50:34.344Z,2.38
2023-02-04T09:53:37.354Z,1.88
2023-02-04T09:56:39.819Z,3.08
2023-02-04T09:59:43.776Z,2.97
2023-02-04T10:02:46.060Z,3.55
2023-02-04T10:05:49.157Z,3.58
2023-02-04T10:08:52.091Z,2.03
2023-02-04T10:11:54.070Z,3.10
2023-02-04T10:14:56.070Z,2.40
2023-02-04T10:18:03.580Z,1.90
2023-02-04T10:21:36.715Z,2.40
2023-02-04T10:24:38.638Z,1.58
2023-02-04T10:27:57.620Z,2.33
2023-02-04T10:31:00.127Z,2.00
2023-02-04T10:34:32.923Z,2.85
2023-02-04T10:37:34.820Z,1.70
2023-02-04T10:40:37.175Z,2.30
2023-02-04T10:43:39.305Z,1.70
2023-02-04T10:46:48.529Z,2.57
2023-02-04T10:50:15.761Z,2.78
2023-02-04T10:53:41.373Z,2.42
2023-02-04T10:56:43.622Z,2.20
2023-02-04T10:59:48.164Z,2.58
2023-02-04T11:03:07.395Z,1.90
2023-02-04T11:06:16.386Z,1.80
2023-02-04T11:09:19.089Z,2.00
2023-02-04T11:12:47.954Z,2.25
2023-02-04T11:16:16.476Z,1.85
2023-02-04T11:19:32.825Z,2.37
2023-02-04T11:22:47.025Z,1.50
2023-02-04T11:25:49.068Z,1.65
2023-02-04T11:29:00.150Z,1.50
2023-02-04T11:32:07.544Z,2.00
2023-02-04T11:35:12.088Z,1.47
2023-02-04T11:38:27.150Z,1.80
2023-02-04T11:41:30.856Z,2.22
2023-02-04T11:44:33.891Z,1.70
2023-02-04T11:47:36.678Z,2.75
2023-02-04T11:50:39.053Z,1.57
2023-02-04T11:53:41.353Z,1.33
2023-02-04T11:56:43.253Z,2.03
2023-02-04T11:59:45.348Z,1.85
2023-02-04T12:02:59.337Z,2.13
2023-02-04T12:06:01.711Z,2.03
2023-02-04T12:09:09.576Z,2.25
2023-02-04T12:12:11.452Z,1.88
2023-02-04T12:15:24.104Z,2.75
2023-02-04T12:18:29.324Z,2.80
2023-02-04T12:21:31.266Z,2.50
2023-02-04T12:24:33.162Z,2.40
2023-02-04T12:27:35.143Z,2.80
2023-02-04T12:30:37.336Z,2.30
2023-02-04T12:33:39.294Z,2.30
2023-02-04T12:36:41.187Z,2.60
2023-02-04T12:39:43.052Z,2.30
2023-02-04T12:42:45.268Z,1.90
2023-02-04T12:45:49.848Z,1.90
2023-02-04T12:48:52.127Z,2.00
2023-02-04T12:51:58.897Z,2.20
2023-02-04T12:55:01.356Z,2.17
2023-02-04T12:58:03.816Z,2.22
2023-02-04T13:01:06.037Z,1.80
2023-02-04T13:04:08.076Z,2.97
2023-02-04T13:07:10.384Z,1.83
2023-02-04T13:10:13.591Z,2.78
2023-02-04T13:13:15.422Z,2.10
2023-02-04T13:16:19.472Z,2.75
2023-02-04T13:19:24.975Z,3.80
2023-02-04T13:22:27.397Z,3.00
2023-02-04T13:25:29.418Z,4.35
2023-02-04T13:28:31.369Z,2.95
2023-02-04T13:31:33.285Z,2.65
2023-02-04T13:34:35.324Z,2.88
2023-02-04T13:37:38.334Z,1.90
2023-02-04T13:40:40.352Z,1.30
2023-02-04T13:43:42.456Z,2.83
2023-02-04T13:46:44.366Z,2.72
2023-02-04T13:49:46.327Z,2.58
2023-02-04T13:52:48.146Z,3.37
2023-02-04T13:55:50.042Z,2.35
2023-02-04T13:58:51.994Z,2.42
2023-02-04T14:01:54.004Z,1.90
2023-02-04T14:04:57.708Z,1.52
2023-02-04T14:07:59.883Z,1.37
2023-02-04T14:11:01.866Z,2.85
2023-02-04T14:14:03.869Z,1.95
2023-02-04T14:17:05.768Z,1.95
2023-02-04T14:20:08.470Z,2.30
2023-02-04T14:23:11.982Z,2.17
2023-02-04T14:26:13.894Z,1.70
2023-02-04T14:29:16.618Z,2.05
2023-02-04T14:32:18.480Z,1.95
2023-02-04T14:35:20.802Z,3.13
2023-02-04T14:38:22.893Z,4.13
2023-02-04T14:41:26.426Z,3.22
2023-02-04T14:44:28.399Z,2.38
2023-02-04T14:47:30.360Z,1.95
2023-02-04T14:50:33.348Z,3.05
2023-02-04T14:53:35.413Z,2.37
2023-02-04T14:56:37.495Z,3.55
2023-02-04T14:59:39.782Z,2.90
2023-02-04T15:02:42.579Z,2.60
2023-02-04T15:05:44.750Z,2.88
2023-02-04T15:08:46.599Z,4.30
2023-02-04T15:11:48.397Z,3.33
2023-02-04T15:14:50.250Z,3.63
2023-02-04T15:18:24.385Z,9.18
2023-02-04T15:21:27.395Z,8.02
2023-02-04T15:24:30.117Z,4.03
2023-02-04T15:27:32.051Z,5.28
2023-02-04T15:30:34.445Z,4.88
2023-02-04T15:33:36.671Z,2.80
2023-02-04T15:36:38.697Z,2.55
2023-02-04T15:39:40.640Z,2.13
2023-02-04T15:42:43.059Z,1.77
2023-02-04T15:45:45.008Z,1.67
2023-02-04T15:48:47.098Z,1.30
2023-02-04T15:51:49.296Z,1.52
2023-02-04T15:54:51.667Z,1.93
2023-02-04T15:57:53.537Z,1.70
2023-02-04T16:00:55.494Z,1.92
2023-02-04T16:04:26.014Z,2.78
2023-02-04T16:07:27.891Z,2.88
2023-02-04T16:10:30.483Z,6.27
2023-02-04T16:13:32.840Z,1.75
2023-02-04T16:16:34.778Z,1.17
2023-02-04T16:19:36.719Z,2.17
2023-02-04T16:22:38.577Z,2.88
2023-02-04T16:25:40.560Z,2.37
2023-02-04T16:28:42.542Z,3.47
2023-02-04T16:31:44.710Z,2.38
2023-02-04T16:34:46.664Z,1.80
2023-02-04T16:37:48.502Z,2.20
2023-02-04T16:40:50.586Z,1.37
2023-02-04T16:43:52.627Z,1.58
2023-02-04T16:46:55.082Z,1.60
2023-02-04T16:50:00.870Z,2.08
2023-02-04T16:53:03.442Z,1.33
2023-02-04T16:56:05.681Z,1.40
2023-02-04T16:59:07.655Z,1.85
2023-02-04T17:02:10.714Z,1.60
2023-02-04T17:05:12.952Z,2.08
2023-02-04T17:08:15.229Z,1.70
2023-02-04T17:11:29.143Z,2.33
2023-02-04T17:14:31.871Z,1.35
2023-02-04T17:17:33.878Z,1.70
2023-02-04T17:20:36.515Z,1.65
2023-02-04T17:23:38.523Z,1.42
2023-02-04T17:26:40.500Z,1.60
2023-02-04T17:29:42.598Z,1.27
2023-02-04T17:32:45.597Z,1.75
2023-02-04T17:35:47.548Z,1.25
2023-02-04T17:38:50.302Z,1.70
2023-02-04T17:41:52.745Z,3.33
2023-02-04T17:44:56.666Z,1.65
2023-02-04T17:47:58.811Z,2.28
2023-02-04T17:51:00.988Z,5.50
2023-02-04T17:54:03.072Z,4.50
2023-02-04T17:57:18.101Z,5.43
2023-02-04T18:00:23.028Z,3.33
2023-02-04T18:03:28.333Z,7.22
2023-02-04T18:06:30.654Z,3.55
2023-02-04T18:09:32.816Z,2.20
2023-02-04T18:12:35.276Z,2.63
2023-02-04T18:15:37.649Z,1.70
2023-02-04T18:18:41.027Z,1.27
2023-02-04T18:21:43.522Z,2.50
2023-02-04T18:24:48.850Z,2.42
2023-02-04T18:27:52.518Z,1.23
2023-02-04T18:31:00.249Z,2.35
2023-02-04T18:34:34.090Z,2.60
2023-02-04T18:37:42.637Z,3.67
2023-02-04T18:40:44.558Z,4.63
2023-02-04T18:43:51.261Z,4.87
2023-02-04T18:46:54.394Z,1.48
2023-02-04T18:49:56.602Z,2.13
2023-02-04T18:53:19.610Z,2.58
2023-02-04T18:56:21.836Z,2.40
2023-02-04T18:59:28.078Z,2.30
2023-02-04T19:02:39.489Z,3.38
2023-02-04T19:05:50.946Z,2.80
2023-02-04T19:08:59.518Z,3.10
2023-02-04T19:12:19.558Z,2.40
2023-02-04T19:15:37.173Z,3.80
2023-02-04T19:18:42.659Z,3.00
2023-02-04T19:21:45.515Z,2.67
2023-02-04T19:24:48.626Z,2.70
2023-02-04T19:27:57.221Z,2.33
2023-02-04T19:31:04.779Z,3.27
2023-02-04T19:34:23.457Z,4.40
2023-02-04T19:37:46.832Z,4.78
2023-02-04T19:40:51.383Z,1.85
2023-02-04T19:44:35.246Z,3.33
2023-02-04T19:47:42.296Z,2.03
2023-02-04T19:50:44.705Z,1.73
2023-02-04T19:53:53.961Z,2.05
2023-02-04T19:56:56.137Z,2.05
2023-02-04T19:59:58.501Z,2.00
2023-02-04T20:03:01.562Z,2.70
2023-02-04T20:06:09.646Z,1.75
2023-02-04T20:09:29.116Z,2.05
2023-02-04T20:12:33.194Z,3.33
2023-02-04T20:15:35.501Z,5.45
2023-02-04T20:18:37.710Z,5.57
2023-02-04T20:21:39.918Z,5.75
2023-02-04T20:24:43.159Z,6.30
2023-02-04T20:27:46.755Z,4.80
2023-02-04T20:30:50.604Z,3.60
2023-02-04T20:33:59.871Z,3.60
2023-02-04T20:37:01.758Z,2.08
2023-02-04T20:40:21.060Z,1.73
2023-02-04T20:43:24.234Z,3.35
2023-02-04T20:46:26.668Z,3.95
2023-02-04T20:49:28.831Z,4.33
2023-02-04T20:52:40.112Z,3.83
2023-02-04T20:55:48.796Z,3.83
2023-02-04T20:58:55.724Z,5.03
2023-02-04T21:01:58.150Z,5.97
2023-02-04T21:05:01.944Z,4.63
2023-02-04T21:08:21.409Z,5.60
2023-02-04T21:11:24.601Z,3.08
2023-02-04T21:14:28.132Z,3.55
2023-02-04T21:17:30.128Z,3.58
2023-02-04T21:20:34.674Z,2.70
2023-02-04T21:23:37.151Z,3.85
2023-02-04T21:26:39.669Z,2.65
2023-02-04T21:29:41.531Z,2.40
2023-02-04T21:32:44.434Z,2.30
2023-02-04T21:35:46.391Z,2.90
2023-02-04T21:38:48.240Z,2.15
2023-02-04T21:42:10.293Z,2.75
2023-02-04T21:45:12.464Z,2.65
2023-02-04T21:48:14.884Z,3.05
2023-02-04T21:51:16.787Z,2.30
2023-02-04T21:54:18.952Z,2.00
2023-02-04T21:57:20.831Z,2.78
2023-02-04T22:00:23.889Z,2.67
2023-02-04T22:03:25.796Z,2.30
2023-02-04T22:06:27.769Z,1.57
2023-02-04T22:09:29.706Z,2.47
2023-02-04T22:12:32.203Z,2.00
2023-02-04T22:15:34.360Z,1.73
2023-02-04T22:18:36.750Z,1.85
2023-02-04T22:21:38.662Z,2.20
2023-02-04T22:24:40.667Z,1.70
2023-02-04T22:27:42.693Z,2.35
2023-02-04T22:30:46.873Z,1.73
2023-02-04T22:33:48.870Z,2.45
2023-02-04T22:36:50.717Z,2.07
2023-02-04T22:39:52.929Z,1.85
2023-02-04T22:42:54.867Z,1.60
2023-02-04T22:45:56.789Z,1.83
2023-02-04T22:48:58.763Z,1.70
2023-02-04T22:52:00.854Z,1.77
2023-02-04T22:55:02.757Z,2.50
2023-02-04T22:58:04.661Z,2.30
2023-02-04T23:01:07.203Z,3.08
2023-02-04T23:04:09.053Z,2.40
2023-02-04T23:07:12.297Z,3.60
2023-02-04T23:10:14.326Z,2.88
2023-02-04T23:13:17.062Z,2.28
2023-02-04T23:16:19.588Z,3.35
2023-02-04T23:19:21.938Z,2.70
2023-02-04T23:22:23.893Z,2.80
2023-02-04T23:25:25.906Z,1.40
2023-02-04T23:28:28.194Z,1.33
2023-02-04T23:31:30.034Z,1.05
2023-02-04T23:34:31.969Z,1.23
2023-02-04T23:37:34.271Z,1.70
2023-02-04T23:40:36.442Z,1.48
2023-02-04T23:43:38.367Z,1.65
2023-02-04T23:46:40.672Z,1.20
2023-02-04T23:49:42.759Z,1.92
2023-02-04T23:52:44.813Z,2.17
2023-02-04T23:55:46.746Z,1.67
2023-02-04T23:58:48.733Z,2.10
